Observations for BRIZE NORTON RA, United Kingdom (EGVN)

EGVN 190250Z 22007KT CAVOK 16/15 Q1010 BLU NOSIG
EGVN 190250Z 22007KT CAVOK 16/15 Q1010 NOSIG
EGVN 190150Z 22005KT 9999 SCT012 SCT045 16/15 Q1010 RERA GRN TEMPO SCT040 BLU   
EGVN 190150Z 22005KT 9999 SCT012 SCT045 16/15 Q1010 RERA TEMPO SCT040
EGVN 190108Z 25006KT 9999 SCT011 BKN050 16/15 Q1011 RERA GRN BECMG SCT015 WHT
EGVN 190050Z 21009KT 5000 RA SCT014 BKN027 17/15 Q1010 GRN BECMG 9999 NSW BKN015 WHT
EGVN 190056Z 22009KT 4000 +RA BKN011 BKN027 17/15 Q1011 GRN BECMG 9999 NSW BKN015 WHT
EGVN 190050Z 21009KT 5000 RA SCT014 BKN027 17/15 Q1010 BECMG 9999 NSW BKN015
EGVN 190026Z 21010KT 7000 -RA BKN016 BKN030 17/15 Q1010 WHT TEMPO SCT010 GRN
EGVN 182350Z 21009KT 9999 BKN018 BKN035 17/15 Q1011 TEMPO 6000 SHRA SCT010  
EGVN 182350Z 21009KT 9999 BKN018 BKN035 17/15 Q1011 WHT TEMPO 6000 SHRA SCT010 GRN
EGVN 182250Z 20009KT 9999 SCT020 BKN045 18/14 Q1011 TEMPO 7000 SHRA 
EGVN 182250Z 20009KT 9999 SCT020 BKN045 18/14 Q1011 WHT TEMPO 7000 SHRA WHT
EGVN 182150Z 21011KT 9999 SCT020 BKN050 18/14 Q1011 NOSIG   
EGVN 182150Z 21011KT 9999 SCT020 BKN050 18/14 Q1011 WHT NOSIG
EGVN 182050Z 21011KT 9999 FEW020 OVC050 18/14 Q1011 BLU NOSIG   
EGVN 182050Z 21011KT 9999 FEW020 OVC050 18/14 Q1011 NOSIG
EGVN 181950Z 21013G24KT 9999 FEW020 BKN046 18/14 Q1010 TEMPO 21015G25KT 
EGVN 181950Z 21013G24KT 9999 FEW020 BKN046 18/14 Q1010 BLU TEMPO 21015G25KT BLU
EGVN 181850Z 20012G22KT CAVOK 18/14 Q1010 NOSIG 
EGVN 181850Z 20012G22KT CAVOK 18/14 Q1010 BLU NOSIG
EGVN 181750Z 21009KT 9999 FEW028 19/14 Q1010 NOSIG  
EGVN 181750Z 21009KT 9999 FEW028 19/14 Q1010 BLU NOSIG
EGVN 181723Z 22009KT 9999 FEW027 19/14 Q1010 BLU NOSIG
EGVN 181650Z 22010KT 9999 SCT024 BKN033 20/14 Q1010 BECMG SCT025
EGVN 181650Z 22010KT 9999 SCT024 BKN033 20/14 Q1010 WHT BECMG SCT025 BLU
EGVN 181550Z 21011G22KT 9999 SCT024 BKN029 20/15 Q1010 BECMG SCT025 
EGVN 181550Z 21011G22KT 9999 SCT024 BKN029 20/15 Q1010 WHT BECMG SCT025 BLU
EGVN 181508Z 23009KT 9999 -RA SCT022 BKN033 19/15 Q1010 WHT BECMG SCT025 BLU
EGVN 181450Z 22011G22KT 9999 -RA BKN025 19/15 Q1009 TEMPO SCT024
EGVN 181450Z 22011G22KT 9999 -RA BKN025 19/15 Q1009 BLU TEMPO SCT024 WHT
EGVN 181350Z 21011KT 9999 BKN028 20/13 Q1009 BLU TEMPO BKN023 WHT   
EGVN 181350Z 21011KT 9999 BKN028 20/13 Q1009 TEMPO BKN023
EGVN 181250Z 24009KT 9999 BKN026 OVC032 20/14 Q1009 BLU TEMPO BKN023 WHT
EGVN 181250Z 24009KT 9999 BKN026 OVC032 20/14 Q1009 TEMPO BKN023
EGVN 181150Z 25010G20KT 9999 BKN025 19/13 Q1009 NOSIG   
EGVN 181150Z 25010G20KT 9999 BKN025 19/13 Q1009 BLU NOSIG
EGVN 181050Z 24009KT 9999 BKN025 BKN032 18/12 Q1008 BLU NOSIG   
EGVN 181050Z 24009KT 9999 BKN025 BKN032 18/12 Q1008 NOSIG
EGVN 180950Z 24008KT 9999 BKN022 BKN032 18/12 Q1007 WHT BECMG SCT025 BLU
EGVN 180950Z 24008KT 9999 BKN022 BKN032 18/12 Q1007 BECMG SCT025
EGVN 180850Z 24009G21KT 9999 BKN018 OVC030 17/14 Q1006 WHT BECMG FEW018 BLU 
EGVN 180850Z 24009G21KT 9999 BKN018 OVC030 17/14 Q1006 BECMG FEW018
EGVN 180750Z 23011G23KT 9999 -RA BKN014 OVC018 18/15 Q1005 BECMG BKN018 
EGVN 180750Z 23011G23KT 9999 -RA BKN014 OVC018 18/15 Q1005 GRN BECMG BKN018 WHT
EGVN 180650Z 22011KT 9999 -RA BKN012 OVC020 18/15 Q1003 BECMG BKN015
EGVN 180650Z 22011KT 9999 -RA BKN012 OVC020 18/15 Q1003 GRN BECMG BKN015 WHT
EGVN 180550Z 21012KT 9999 BKN012 17/15 Q1003 NOSIG  
EGVN 180550Z 21012KT 9999 BKN012 17/15 Q1003 GRN NOSIG
EGVN 180450Z 21017G28KT 9999 BKN014 18/15 Q1002 NOSIG   
EGVN 180450Z 21017G28KT 9999 BKN014 18/15 Q1002 GRN NOSIG
EGVN 180350Z 21015G25KT 9999 -DZ BKN014 18/16 Q1002 NOSIG   
EGVN 180350Z 21015G25KT 9999 -DZ BKN014 18/16 Q1002 GRN NOSIG
EGVN 180250Z 20012G23KT 9999 BKN016 19/15 Q1003 WHT TEMPO SCT014 GRN
EGVN 180250Z 20012G23KT 9999 BKN016 19/15 Q1003 TEMPO SCT014